createdAt,value
2018-12-10T00:00:21.781Z,0
2018-12-10T00:01:22.598Z,0
2018-12-10T00:02:23.214Z,0
2018-12-10T00:03:23.864Z,0
2018-12-10T00:04:24.566Z,0
2018-12-10T00:05:25.222Z,0
2018-12-10T00:06:25.879Z,0
2018-12-10T00:07:26.534Z,0
2018-12-10T00:08:27.190Z,0
2018-12-10T00:09:27.844Z,0
2018-12-10T00:10:28.499Z,0
2018-12-10T00:11:29.160Z,0
2018-12-10T00:12:29.860Z,0
2018-12-10T00:13:30.519Z,0
2018-12-10T00:14:31.171Z,0
2018-12-10T00:15:31.827Z,0
2018-12-10T00:16:32.485Z,0
2018-12-10T00:17:33.187Z,0
2018-12-10T00:18:33.915Z,0
2018-12-10T00:19:34.540Z,0
2018-12-10T00:20:35.193Z,0
2018-12-10T00:21:35.848Z,0
2018-12-10T00:22:36.550Z,0
2018-12-10T00:23:37.204Z,0
2018-12-10T00:24:37.862Z,0
2018-12-10T00:25:38.517Z,0
2018-12-10T00:26:39.172Z,0
2018-12-10T00:27:39.829Z,0
2018-12-10T00:28:40.529Z,0
2018-12-10T00:29:41.184Z,0
2018-12-10T00:30:41.842Z,0
2018-12-10T00:31:42.498Z,0
2018-12-10T00:32:43.152Z,0
2018-12-10T00:33:43.808Z,0
2018-12-10T00:34:44.462Z,0
2018-12-10T00:35:45.119Z,0
2018-12-10T00:36:45.776Z,0
2018-12-10T00:37:46.428Z,0
2018-12-10T00:38:47.086Z,0
2018-12-10T00:39:47.740Z,0
2018-12-10T00:40:48.397Z,0
2018-12-10T00:41:49.055Z,0
2018-12-10T00:42:49.710Z,0
2018-12-10T00:43:50.366Z,0
2018-12-10T00:44:51.021Z,0
2018-12-10T00:45:51.784Z,0
2018-12-10T00:46:52.394Z,0
2018-12-10T00:47:53.052Z,0
2018-12-10T00:48:53.708Z,0
2018-12-10T00:49:54.361Z,0
2018-12-10T00:50:55.016Z,0
2018-12-10T00:51:55.672Z,0
2018-12-10T00:52:56.375Z,0
2018-12-10T00:53:57.030Z,0
2018-12-10T00:54:57.687Z,0
2018-12-10T00:55:58.341Z,0
2018-12-10T00:56:58.995Z,0
2018-12-10T00:57:59.652Z,0
2018-12-10T00:59:00.307Z,0
2018-12-10T01:00:00.966Z,0
2018-12-10T01:01:01.623Z,0
2018-12-10T01:02:02.279Z,0
2018-12-10T01:03:02.932Z,0
2018-12-10T01:04:03.587Z,0
2018-12-10T01:05:04.243Z,0
2018-12-10T01:06:04.899Z,0
2018-12-10T01:07:05.555Z,0
2018-12-10T01:08:06.209Z,0
2018-12-10T01:09:06.864Z,0
2018-12-10T01:10:07.521Z,0
2018-12-10T01:11:08.178Z,0
2018-12-10T01:12:08.836Z,0
2018-12-10T01:13:09.491Z,0
2018-12-10T01:14:10.147Z,0
2018-12-10T01:15:10.803Z,0
2018-12-10T01:16:11.457Z,0
2018-12-10T01:17:12.111Z,0
2018-12-10T01:18:12.817Z,0
2018-12-10T01:19:13.472Z,0
2018-12-10T01:20:14.127Z,0
2018-12-10T01:21:14.867Z,0
2018-12-10T01:22:15.472Z,0
2018-12-10T01:23:16.130Z,0
2018-12-10T01:24:16.787Z,0
2018-12-10T01:25:17.442Z,0
2018-12-10T01:26:18.095Z,0
2018-12-10T01:27:18.820Z,0
2018-12-10T01:28:19.478Z,0
2018-12-10T01:29:20.135Z,0
2018-12-10T01:30:20.791Z,0
2018-12-10T01:31:21.449Z,0
2018-12-10T01:32:22.103Z,0
2018-12-10T01:33:22.756Z,0
2018-12-10T01:34:23.412Z,0
2018-12-10T01:35:24.069Z,0
2018-12-10T01:36:24.774Z,0
2018-12-10T01:37:25.430Z,0
2018-12-10T01:38:26.089Z,0
2018-12-10T01:39:26.789Z,0
2018-12-10T01:40:27.443Z,0
2018-12-10T01:41:28.096Z,0
2018-12-10T01:42:28.754Z,0
2018-12-10T01:43:29.408Z,0
2018-12-10T01:44:30.120Z,0
2018-12-10T01:45:30.771Z,0
2018-12-10T01:46:31.431Z,0
2018-12-10T01:47:32.084Z,0
2018-12-10T01:48:32.738Z,0
2018-12-10T01:49:33.392Z,0
2018-12-10T01:50:34.048Z,0
2018-12-10T01:51:34.704Z,0
2018-12-10T01:52:35.358Z,0
2018-12-10T01:53:36.011Z,0
2018-12-10T01:54:36.667Z,0
2018-12-10T01:55:37.329Z,0
2018-12-10T01:56:37.980Z,0
2018-12-10T01:57:38.636Z,0
2018-12-10T01:58:39.289Z,0
2018-12-10T01:59:39.943Z,0
2018-12-10T02:00:40.601Z,0
2018-12-10T02:01:41.258Z,0
2018-12-10T02:02:41.910Z,0
2018-12-10T02:03:42.566Z,0
2018-12-10T02:04:43.223Z,0
2018-12-10T02:05:43.881Z,0
2018-12-10T02:06:44.558Z,0
2018-12-10T02:07:45.241Z,0
2018-12-10T02:08:45.897Z,0
2018-12-10T02:09:46.552Z,0
2018-12-10T02:10:47.207Z,0
2018-12-10T02:11:47.863Z,0
2018-12-10T02:12:48.519Z,0
2018-12-10T02:13:49.177Z,0
2018-12-10T02:14:49.832Z,0
2018-12-10T02:15:50.488Z,0
2018-12-10T02:16:51.140Z,0
2018-12-10T02:17:51.797Z,0
2018-12-10T02:18:52.453Z,0
2018-12-10T02:19:53.109Z,0
2018-12-10T02:20:53.765Z,0
2018-12-10T02:21:54.420Z,0
2018-12-10T02:22:55.078Z,0
2018-12-10T02:23:55.736Z,0
2018-12-10T02:24:56.433Z,0
2018-12-10T02:25:57.089Z,0
2018-12-10T02:26:57.744Z,0
2018-12-10T02:27:58.399Z,0
2018-12-10T02:28:59.055Z,0
2018-12-10T02:29:59.713Z,0
2018-12-10T02:31:00.367Z,0
2018-12-10T02:32:01.031Z,0
2018-12-10T02:33:01.733Z,0
2018-12-10T02:34:02.437Z,0
2018-12-10T02:35:03.090Z,0
2018-12-10T02:36:03.745Z,0
2018-12-10T02:37:04.451Z,0
2018-12-10T02:38:05.226Z,0
2018-12-10T02:39:05.835Z,0
2018-12-10T02:40:06.482Z,0
2018-12-10T02:41:07.137Z,0
2018-12-10T02:42:07.844Z,0
2018-12-10T02:43:08.498Z,0
2018-12-10T02:44:09.153Z,0
2018-12-10T02:45:09.808Z,0
2018-12-10T02:46:10.461Z,0
2018-12-10T02:47:11.145Z,0
2018-12-10T02:48:11.767Z,0
2018-12-10T02:49:12.422Z,0
2018-12-10T02:50:13.121Z,0
2018-12-10T02:51:13.775Z,0
2018-12-10T02:52:14.434Z,0
2018-12-10T02:53:15.109Z,0
2018-12-10T02:54:15.789Z,0
2018-12-10T02:55:16.444Z,0
2018-12-10T02:56:17.097Z,0
2018-12-10T02:57:17.751Z,0
2018-12-10T02:58:18.405Z,0
2018-12-10T02:59:19.062Z,0
2018-12-10T03:00:19.761Z,0
2018-12-10T03:01:20.421Z,0
2018-12-10T03:02:21.075Z,0
2018-12-10T03:03:21.731Z,0
2018-12-10T03:04:22.482Z,0
2018-12-10T03:05:23.136Z,0
2018-12-10T03:06:23.790Z,0
2018-12-10T03:07:24.447Z,0
2018-12-10T03:08:25.101Z,0
2018-12-10T03:09:25.756Z,0
2018-12-10T03:10:26.415Z,0
2018-12-10T03:11:27.066Z,0
2018-12-10T03:12:27.719Z,0
2018-12-10T03:13:28.382Z,0
2018-12-10T03:14:29.028Z,0
2018-12-10T03:15:29.684Z,0
2018-12-10T03:16:30.338Z,0
2018-12-10T03:17:30.993Z,0
2018-12-10T03:18:31.649Z,0
2018-12-10T03:19:32.307Z,0
2018-12-10T03:20:33.045Z,0
2018-12-10T03:21:33.704Z,0
2018-12-10T03:22:34.356Z,0
2018-12-10T03:23:35.011Z,0
2018-12-10T03:24:35.666Z,0
2018-12-10T03:25:36.322Z,0
2018-12-10T03:26:36.981Z,0
2018-12-10T03:27:37.632Z,0
2018-12-10T03:28:38.374Z,0
2018-12-10T03:29:38.986Z,0
2018-12-10T03:30:39.643Z,0
2018-12-10T03:31:40.300Z,0
2018-12-10T03:32:40.957Z,0
2018-12-10T03:33:41.611Z,0
2018-12-10T03:34:42.266Z,0
2018-12-10T03:35:42.924Z,0
2018-12-10T03:36:43.626Z,0
2018-12-10T03:37:44.281Z,0
2018-12-10T03:38:44.937Z,0
2018-12-10T03:39:45.593Z,0
2018-12-10T03:40:46.252Z,0
2018-12-10T03:41:46.952Z,0
2018-12-10T03:42:47.606Z,0
2018-12-10T03:43:48.262Z,0
2018-12-10T03:44:48.916Z,0
2018-12-10T03:45:49.571Z,0
2018-12-10T03:46:50.226Z,0
2018-12-10T03:47:50.882Z,0
2018-12-10T03:48:51.538Z,0
2018-12-10T03:49:52.194Z,0
2018-12-10T03:50:52.851Z,0
2018-12-10T03:51:53.509Z,0
2018-12-10T03:52:54.167Z,0
2018-12-10T03:53:54.822Z,0
2018-12-10T03:54:55.477Z,0
2018-12-10T03:55:56.130Z,0
2018-12-10T03:56:56.791Z,0
2018-12-10T03:57:57.440Z,0
2018-12-10T03:58:58.096Z,0
2018-12-10T03:59:58.750Z,0
2018-12-10T04:00:59.409Z,0
2018-12-10T04:02:00.107Z,0
2018-12-10T04:03:00.837Z,0
2018-12-10T04:04:01.441Z,0
2018-12-10T04:05:02.098Z,0
2018-12-10T04:06:02.751Z,0
2018-12-10T04:07:03.406Z,0
2018-12-10T04:08:04.062Z,0
2018-12-10T04:09:04.717Z,0
2018-12-10T04:10:05.375Z,0
2018-12-10T04:11:06.034Z,0
2018-12-10T04:12:06.686Z,0
2018-12-10T04:13:07.341Z,0
2018-12-10T04:14:08.039Z,0
2018-12-10T04:15:08.694Z,0
2018-12-10T04:16:09.356Z,0
2018-12-10T04:17:10.052Z,0
2018-12-10T04:18:10.707Z,0
2018-12-10T04:19:11.362Z,0
2018-12-10T04:20:12.016Z,0
2018-12-10T04:21:12.673Z,0
2018-12-10T04:22:13.329Z,0
2018-12-10T04:23:13.985Z,0
2018-12-10T04:24:14.642Z,0
2018-12-10T04:25:15.298Z,0
2018-12-10T04:26:15.953Z,0
2018-12-10T04:27:16.609Z,0
2018-12-10T04:28:17.261Z,0
2018-12-10T04:29:17.917Z,0
2018-12-10T04:30:18.644Z,0
2018-12-10T04:31:19.251Z,0
2018-12-10T04:32:19.905Z,0
2018-12-10T04:33:20.561Z,0
2018-12-10T04:34:21.216Z,0
2018-12-10T04:35:21.888Z,0
2018-12-10T04:36:22.576Z,0
2018-12-10T04:37:23.232Z,0
2018-12-10T04:38:23.887Z,0
2018-12-10T04:39:24.543Z,0
2018-12-10T04:40:25.198Z,0
2018-12-10T04:41:25.854Z,0
2018-12-10T04:42:26.510Z,0
2018-12-10T04:43:27.170Z,0
2018-12-10T04:44:27.869Z,0
2018-12-10T04:45:28.528Z,0
2018-12-10T04:46:29.182Z,0
2018-12-10T04:47:29.837Z,0
2018-12-10T04:48:30.491Z,0
2018-12-10T04:49:31.147Z,0
2018-12-10T04:50:31.802Z,0
2018-12-10T04:51:32.457Z,0
2018-12-10T04:52:33.110Z,0
2018-12-10T04:53:33.766Z,0
2018-12-10T04:54:34.423Z,0
2018-12-10T04:55:35.124Z,0
2018-12-10T04:56:35.781Z,0
2018-12-10T04:57:36.436Z,0
2018-12-10T04:58:37.092Z,0
2018-12-10T04:59:37.751Z,0
2018-12-10T05:00:38.402Z,0
2018-12-10T05:01:39.060Z,0
2018-12-10T05:02:39.712Z,0
2018-12-10T05:03:40.366Z,0
2018-12-10T05:04:41.021Z,0
2018-12-10T05:05:41.675Z,0
2018-12-10T05:06:42.331Z,0
2018-12-10T05:07:42.988Z,0
2018-12-10T05:08:43.644Z,0
2018-12-10T05:09:44.301Z,0
2018-12-10T05:10:45.042Z,0
2018-12-10T05:11:45.649Z,0
2018-12-10T05:12:46.303Z,0
2018-12-10T05:13:46.958Z,0
2018-12-10T05:14:47.613Z,0
2018-12-10T05:15:48.316Z,0
2018-12-10T05:16:49.017Z,0
2018-12-10T05:17:49.670Z,0
2018-12-10T05:18:50.325Z,0
2018-12-10T05:19:50.982Z,0
2018-12-10T05:20:51.639Z,0
2018-12-10T05:21:52.295Z,0
2018-12-10T05:22:52.952Z,0
2018-12-10T05:23:53.610Z,0
2018-12-10T05:24:54.262Z,0
2018-12-10T05:25:54.916Z,0
2018-12-10T05:26:55.571Z,0
2018-12-10T05:27:56.226Z,0
2018-12-10T05:28:56.926Z,0
2018-12-10T05:29:57.584Z,0
2018-12-10T05:30:58.236Z,0
2018-12-10T05:31:58.892Z,0
2018-12-10T05:32:59.547Z,0
2018-12-10T05:34:00.205Z,0
2018-12-10T05:35:00.861Z,0
2018-12-10T05:36:01.519Z,0
2018-12-10T05:37:02.212Z,0
2018-12-10T05:38:02.873Z,0
2018-12-10T05:39:03.526Z,0
2018-12-10T05:40:04.181Z,0
2018-12-10T05:41:04.835Z,0
2018-12-10T05:42:05.514Z,0
2018-12-10T05:43:06.192Z,0
2018-12-10T05:44:06.847Z,0
2018-12-10T05:45:07.503Z,0
2018-12-10T05:46:08.162Z,0
2018-12-10T05:47:08.861Z,0
2018-12-10T05:48:09.517Z,0
2018-12-10T05:49:10.174Z,0
2018-12-10T05:50:10.832Z,0
2018-12-10T05:51:11.486Z,0
2018-12-10T05:52:12.142Z,0
2018-12-10T05:53:12.794Z,0
2018-12-10T05:54:13.449Z,0
2018-12-10T05:55:14.103Z,0
2018-12-10T05:56:14.759Z,0
2018-12-10T05:57:15.413Z,0
2018-12-10T05:58:17.740Z,0
2018-12-10T05:59:17.715Z,0
2018-12-10T06:00:18.374Z,0
2018-12-10T06:01:19.071Z,0
2018-12-10T06:02:19.729Z,0
2018-12-10T06:03:20.385Z,0
2018-12-10T06:04:21.040Z,0
2018-12-10T06:05:21.701Z,0
2018-12-10T06:06:22.355Z,0
2018-12-10T06:07:23.007Z,0
2018-12-10T06:08:23.661Z,0
2018-12-10T06:09:24.316Z,0
2018-12-10T06:10:24.971Z,0
2018-12-10T06:11:25.627Z,0
2018-12-10T06:12:26.282Z,0
2018-12-10T06:13:26.937Z,0
2018-12-10T06:14:27.591Z,0
2018-12-10T06:15:28.247Z,0
2018-12-10T06:16:28.904Z,0
2018-12-10T06:17:29.568Z,0
2018-12-10T06:18:30.261Z,0
2018-12-10T06:19:30.917Z,0
2018-12-10T06:20:31.570Z,0
2018-12-10T06:21:32.273Z,0
2018-12-10T06:22:32.925Z,0
2018-12-10T06:23:33.580Z,0
2018-12-10T06:24:34.234Z,0
2018-12-10T06:25:34.889Z,0
2018-12-10T06:26:35.543Z,0
2018-12-10T06:27:36.204Z,0
2018-12-10T06:28:36.858Z,0
2018-12-10T06:29:37.514Z,0
2018-12-10T06:30:38.174Z,0
2018-12-10T06:31:38.826Z,0
2018-12-10T06:32:39.481Z,0
2018-12-10T06:33:40.137Z,0
2018-12-10T06:34:40.837Z,0
2018-12-10T06:35:41.493Z,0
2018-12-10T06:36:42.151Z,4
2018-12-10T06:37:42.860Z,0
2018-12-10T06:38:43.553Z,4
2018-12-10T06:39:44.212Z,0
2018-12-10T06:40:44.863Z,0
2018-12-10T06:41:45.518Z,4
2018-12-10T06:42:46.173Z,4
2018-12-10T06:43:46.831Z,4
2018-12-10T06:44:47.571Z,8
2018-12-10T06:45:48.240Z,8
2018-12-10T06:46:48.894Z,8
2018-12-10T06:47:49.552Z,8
2018-12-10T06:48:50.209Z,8
2018-12-10T06:49:50.864Z,8
2018-12-10T06:50:51.518Z,12
2018-12-10T06:51:52.173Z,8
2018-12-10T06:52:52.829Z,12
2018-12-10T06:53:53.485Z,16
2018-12-10T06:54:54.189Z,16
2018-12-10T06:55:54.846Z,16
2018-12-10T06:56:55.503Z,20
2018-12-10T06:57:56.160Z,20
2018-12-10T06:58:56.817Z,28
2018-12-10T06:59:57.472Z,36
2018-12-10T07:00:59.981Z,44
2018-12-10T07:01:59.776Z,52
2018-12-10T07:03:00.432Z,56
2018-12-10T07:04:01.089Z,44
2018-12-10T07:05:01.747Z,40
2018-12-10T07:06:02.406Z,40
2018-12-10T07:07:03.062Z,40
2018-12-10T07:08:03.770Z,48
2018-12-10T07:09:04.425Z,52
2018-12-10T07:10:05.083Z,64
2018-12-10T07:11:05.741Z,80
2018-12-10T07:12:06.400Z,104
2018-12-10T07:13:07.060Z,100
2018-12-10T07:14:07.718Z,108
2018-12-10T07:15:08.376Z,140
2018-12-10T07:16:09.034Z,156
2018-12-10T07:17:09.694Z,164
2018-12-10T07:18:10.356Z,184
2018-12-10T07:19:11.059Z,196
2018-12-10T07:20:11.714Z,208
2018-12-10T07:21:12.374Z,220
2018-12-10T07:22:13.032Z,220
2018-12-10T07:23:13.690Z,224
2018-12-10T07:24:14.350Z,236
2018-12-10T07:25:15.009Z,248
2018-12-10T07:26:15.667Z,252
2018-12-10T07:27:16.328Z,260
2018-12-10T07:28:16.985Z,256
2018-12-10T07:29:17.644Z,256
2018-12-10T07:30:18.302Z,260
2018-12-10T07:31:18.961Z,260
2018-12-10T07:32:19.620Z,260
2018-12-10T07:33:20.280Z,264
2018-12-10T07:34:20.938Z,300
2018-12-10T07:35:21.597Z,324
2018-12-10T07:36:22.262Z,336
2018-12-10T07:37:22.923Z,360
2018-12-10T07:38:23.583Z,384
2018-12-10T07:39:24.244Z,412
2018-12-10T07:40:24.948Z,436
2018-12-10T07:41:25.606Z,460
2018-12-10T07:42:26.265Z,468
2018-12-10T07:43:26.928Z,480
2018-12-10T07:44:27.581Z,488
2018-12-10T07:45:28.240Z,504
2018-12-10T07:46:28.900Z,520
2018-12-10T07:47:29.560Z,536
2018-12-10T07:48:30.218Z,544
2018-12-10T07:49:30.877Z,560
2018-12-10T07:50:31.545Z,568
2018-12-10T07:51:32.196Z,604
2018-12-10T07:52:32.854Z,620
2018-12-10T07:53:33.513Z,628
2018-12-10T07:54:34.220Z,624
2018-12-10T07:55:34.877Z,604
2018-12-10T07:56:35.537Z,636
2018-12-10T07:57:36.240Z,700
2018-12-10T07:58:36.944Z,796
2018-12-10T07:59:37.601Z,944
2018-12-10T08:00:38.261Z,1012
2018-12-10T08:01:38.947Z,1004
2018-12-10T08:02:39.624Z,980
2018-12-10T08:03:40.282Z,920
2018-12-10T08:04:40.941Z,808
2018-12-10T08:05:41.597Z,740
2018-12-10T08:06:42.257Z,720
2018-12-10T08:07:42.913Z,648
2018-12-10T08:08:43.573Z,548
2018-12-10T08:09:44.232Z,496
2018-12-10T08:10:44.889Z,544
2018-12-10T08:11:45.547Z,600
2018-12-10T08:12:46.556Z,600
2018-12-10T08:13:47.149Z,548
2018-12-10T08:14:47.806Z,484
2018-12-10T08:15:48.465Z,452
2018-12-10T08:16:49.165Z,488
2018-12-10T08:17:49.821Z,580
2018-12-10T08:18:50.481Z,628
2018-12-10T08:19:51.183Z,608
2018-12-10T08:20:51.840Z,612
2018-12-10T08:21:52.503Z,688
2018-12-10T08:22:53.208Z,720
2018-12-10T08:23:53.862Z,656
2018-12-10T08:24:54.518Z,588
2018-12-10T08:25:55.177Z,672
2018-12-10T08:26:55.835Z,864
2018-12-10T08:27:56.539Z,996
2018-12-10T08:29:03.886Z,1056
2018-12-10T08:29:58.847Z,876
2018-12-10T08:30:59.506Z,800
2018-12-10T08:32:00.294Z,820
2018-12-10T08:33:01.034Z,892
2018-12-10T08:34:01.740Z,996
2018-12-10T08:35:02.397Z,1032
2018-12-10T08:36:03.058Z,1048
2018-12-10T08:37:03.716Z,1060
2018-12-10T08:38:04.376Z,1056
2018-12-10T08:39:05.034Z,1240
2018-12-10T08:40:05.693Z,1208
2018-12-10T08:41:06.352Z,944
2018-12-10T08:42:07.011Z,1092
2018-12-10T08:43:07.673Z,1204
2018-12-10T08:44:08.377Z,1104
2018-12-10T08:45:09.038Z,1012
2018-12-10T08:46:09.696Z,1120
2018-12-10T08:47:16.017Z,1156
2018-12-10T08:48:12.008Z,1096
2018-12-10T08:49:12.668Z,936
2018-12-10T08:50:13.324Z,840
2018-12-10T08:51:14.032Z,884
2018-12-10T08:52:14.676Z,908
2018-12-10T08:53:15.336Z,984
2018-12-10T08:54:15.996Z,1016
2018-12-10T08:55:16.707Z,1120
2018-12-10T08:56:17.365Z,1284
2018-12-10T08:57:18.023Z,1484
2018-12-10T08:58:18.683Z,1640
2018-12-10T08:59:19.341Z,1720
2018-12-10T09:00:20.000Z,1868
2018-12-10T09:01:20.661Z,1900
2018-12-10T09:02:21.389Z,1712
2018-12-10T09:03:22.050Z,1588
2018-12-10T09:04:22.708Z,1808
2018-12-10T09:05:23.413Z,1692
2018-12-10T09:06:24.072Z,1424
2018-12-10T09:07:24.730Z,1292
2018-12-10T09:08:25.390Z,1464
2018-12-10T09:09:26.050Z,1712
2018-12-10T09:10:26.709Z,1860
2018-12-10T09:11:27.372Z,1964
2018-12-10T09:12:28.030Z,2092
2018-12-10T09:13:28.690Z,2164
2018-12-10T09:14:29.395Z,2240
2018-12-10T09:15:30.070Z,2352
2018-12-10T09:16:30.761Z,2424
2018-12-10T09:17:31.420Z,2472
2018-12-10T09:18:32.079Z,2492
2018-12-10T09:19:32.738Z,2444
2018-12-10T09:20:33.396Z,2408
2018-12-10T09:21:34.057Z,2184
2018-12-10T09:22:34.715Z,2104
2018-12-10T09:23:35.376Z,2184
2018-12-10T09:24:36.036Z,2204
2018-12-10T09:25:36.695Z,2160
2018-12-10T09:26:37.357Z,1832
2018-12-10T09:27:38.019Z,1704
2018-12-10T09:28:38.677Z,1596
2018-12-10T09:29:39.421Z,1512
2018-12-10T09:30:40.037Z,1560
2018-12-10T09:31:40.699Z,1824
2018-12-10T09:32:41.358Z,2228
2018-12-10T09:33:42.020Z,2432
2018-12-10T09:34:42.681Z,2476
2018-12-10T09:35:43.342Z,2368
2018-12-10T09:36:44.002Z,2236
2018-12-10T09:37:44.662Z,1932
2018-12-10T09:38:45.323Z,1544
2018-12-10T09:39:45.983Z,1420
2018-12-10T09:40:46.645Z,1424
2018-12-10T09:41:47.305Z,1352
2018-12-10T09:42:47.964Z,1340
2018-12-10T09:43:48.625Z,1500
2018-12-10T09:44:49.339Z,1912
2018-12-10T09:45:50.000Z,2192
2018-12-10T09:46:58.476Z,2388
2018-12-10T09:47:52.311Z,2596
2018-12-10T09:48:52.970Z,2632
2018-12-10T09:49:53.628Z,2628
2018-12-10T09:50:54.288Z,2608
2018-12-10T09:51:54.948Z,3116
2018-12-10T09:52:55.609Z,3244
2018-12-10T09:53:56.268Z,3888
2018-12-10T09:54:56.930Z,3496
2018-12-10T09:55:57.591Z,3464
2018-12-10T09:56:58.250Z,3456
2018-12-10T09:57:58.910Z,3044
2018-12-10T09:58:59.570Z,2700
2018-12-10T10:00:00.230Z,2728
2018-12-10T10:01:00.893Z,2604
2018-12-10T10:02:01.597Z,2712
2018-12-10T10:03:02.303Z,2868
2018-12-10T10:04:02.963Z,3224
2018-12-10T10:05:03.621Z,3256
2018-12-10T10:06:04.282Z,3444
2018-12-10T10:07:04.987Z,3340
2018-12-10T10:08:05.647Z,3720
2018-12-10T10:09:06.308Z,3204
2018-12-10T10:10:06.965Z,2548
2018-12-10T10:11:07.625Z,2292
2018-12-10T10:12:08.286Z,2308
2018-12-10T10:13:08.946Z,2120
2018-12-10T10:14:09.605Z,1976
2018-12-10T10:15:10.267Z,2084
2018-12-10T10:16:10.928Z,2396
2018-12-10T10:17:11.588Z,2700
2018-12-10T10:18:12.251Z,2744
2018-12-10T10:19:12.955Z,2236
2018-12-10T10:20:13.614Z,1944
2018-12-10T10:21:14.273Z,1976
2018-12-10T10:22:14.934Z,2576
2018-12-10T10:23:15.594Z,2336
2018-12-10T10:24:16.254Z,2536
2018-12-10T10:25:16.916Z,2576
2018-12-10T10:26:17.575Z,1836
2018-12-10T10:27:18.236Z,1864
2018-12-10T10:28:18.898Z,1760
2018-12-10T10:29:19.561Z,1856
2018-12-10T10:30:20.217Z,2688
2018-12-10T10:31:20.878Z,2780
2018-12-10T10:32:21.539Z,2740
2018-12-10T10:33:22.198Z,2500
2018-12-10T10:34:22.859Z,2248
2018-12-10T10:35:23.521Z,2768
2018-12-10T10:36:24.179Z,2324
2018-12-10T10:37:24.840Z,2660
2018-12-10T10:38:25.501Z,2832
2018-12-10T10:39:26.160Z,3124
2018-12-10T10:40:26.821Z,2696
2018-12-10T10:41:31.273Z,3960
2018-12-10T10:42:29.136Z,3840
2018-12-10T10:43:29.796Z,4416
2018-12-10T10:44:30.460Z,3976
2018-12-10T10:45:34.703Z,3784
2018-12-10T10:46:32.770Z,3564
2018-12-10T10:47:33.432Z,3208
2018-12-10T10:48:34.092Z,3124
2018-12-10T10:49:34.800Z,3260
2018-12-10T10:50:35.461Z,4372
2018-12-10T10:51:36.122Z,4560
2018-12-10T10:52:36.783Z,3572
2018-12-10T10:53:37.445Z,3492
2018-12-10T10:54:38.106Z,3884
2018-12-10T10:55:38.768Z,4164
2018-12-10T10:56:39.429Z,4164
2018-12-10T10:57:40.088Z,4116
2018-12-10T10:58:40.748Z,3788
2018-12-10T10:59:41.411Z,3616
2018-12-10T11:00:42.071Z,3424
2018-12-10T11:01:42.731Z,3348
2018-12-10T11:02:43.393Z,3332
2018-12-10T11:03:44.052Z,3332
2018-12-10T11:04:44.714Z,3296
2018-12-10T11:05:45.377Z,3216
2018-12-10T11:06:46.036Z,3072
2018-12-10T11:07:46.697Z,2852
2018-12-10T11:08:47.359Z,2628
2018-12-10T11:09:48.032Z,2532
2018-12-10T11:10:48.679Z,2492
2018-12-10T11:11:49.341Z,2584
2018-12-10T11:12:50.000Z,2600
2018-12-10T11:13:50.662Z,2236
2018-12-10T11:14:51.322Z,1920
2018-12-10T11:15:51.983Z,1676
2018-12-10T11:16:52.644Z,1456
2018-12-10T11:17:53.352Z,1516
2018-12-10T11:18:54.012Z,2000
2018-12-10T11:19:54.673Z,2412
2018-12-10T11:20:55.334Z,2648
2018-12-10T11:21:55.994Z,2712
2018-12-10T11:22:56.656Z,2660
2018-12-10T11:23:57.317Z,2708
2018-12-10T11:24:57.983Z,2684
2018-12-10T11:25:58.721Z,2540
2018-12-10T11:26:59.332Z,2404
2018-12-10T11:27:59.999Z,2244
2018-12-10T11:29:00.702Z,2256
2018-12-10T11:30:01.365Z,2380
2018-12-10T11:31:02.027Z,2336
2018-12-10T11:32:02.688Z,2132
2018-12-10T11:33:03.350Z,2056
2018-12-10T11:34:04.012Z,2144
2018-12-10T11:35:04.671Z,2236
2018-12-10T11:36:05.334Z,2176
2018-12-10T11:37:05.993Z,2076
2018-12-10T11:38:06.699Z,1988
2018-12-10T11:39:07.360Z,2288
2018-12-10T11:40:08.022Z,2220
2018-12-10T11:41:08.693Z,2232
2018-12-10T11:42:09.343Z,2620
2018-12-10T11:43:10.006Z,2764
2018-12-10T11:44:10.664Z,2404
2018-12-10T11:45:11.325Z,2372
2018-12-10T11:46:12.033Z,2860
2018-12-10T11:47:13.180Z,2912
2018-12-10T11:48:13.992Z,3108
2018-12-10T11:49:14.655Z,3196
2018-12-10T11:50:15.399Z,3264
2018-12-10T11:51:16.046Z,3116
2018-12-10T11:52:16.706Z,2888
2018-12-10T11:53:17.413Z,2720
2018-12-10T11:54:18.072Z,2512
2018-12-10T11:55:18.734Z,2264
2018-12-10T11:56:19.392Z,1984
2018-12-10T11:57:20.098Z,2196
2018-12-10T11:58:20.763Z,2272
2018-12-10T11:59:21.419Z,2152
2018-12-10T12:00:22.079Z,2264
2018-12-10T12:01:22.740Z,2376
2018-12-10T12:02:29.759Z,2116
2018-12-10T12:03:24.097Z,1888
2018-12-10T12:04:24.756Z,1720
2018-12-10T12:05:25.415Z,1708
2018-12-10T12:06:26.079Z,1800
2018-12-10T12:07:26.735Z,1912
2018-12-10T12:08:27.396Z,1940
2018-12-10T12:09:28.058Z,1828
2018-12-10T12:10:28.719Z,1816
2018-12-10T12:11:29.380Z,1936
2018-12-10T12:12:30.042Z,1996
2018-12-10T12:13:30.701Z,1972
2018-12-10T12:14:31.361Z,1916
2018-12-10T12:15:32.022Z,1824
2018-12-10T12:16:32.682Z,1848
2018-12-10T12:17:33.343Z,1964
2018-12-10T12:18:34.003Z,2104
2018-12-10T12:19:34.663Z,2296
2018-12-10T12:20:35.323Z,2560
2018-12-10T12:21:35.983Z,2624
2018-12-10T12:22:36.643Z,2496
2018-12-10T12:23:37.304Z,2352
2018-12-10T12:24:38.003Z,2140
2018-12-10T12:25:38.625Z,1920
2018-12-10T12:26:39.284Z,1688
2018-12-10T12:27:39.942Z,1464
2018-12-10T12:28:40.604Z,1388
2018-12-10T12:29:41.264Z,1300
2018-12-10T12:30:41.923Z,1148
2018-12-10T12:31:42.583Z,948
2018-12-10T12:32:43.243Z,904
2018-12-10T12:33:43.900Z,1164
2018-12-10T12:34:44.560Z,1432
2018-12-10T12:35:45.264Z,1448
2018-12-10T12:36:45.923Z,1260
2018-12-10T12:37:46.581Z,1500
2018-12-10T12:38:47.240Z,1724
2018-12-10T12:39:47.975Z,1852
2018-12-10T12:40:48.591Z,2032
2018-12-10T12:41:49.250Z,2236
2018-12-10T12:42:49.910Z,2708
2018-12-10T12:43:50.621Z,4368
2018-12-10T12:44:51.280Z,2660
2018-12-10T12:45:51.942Z,2892
2018-12-10T12:46:52.603Z,2760
2018-12-10T12:47:53.265Z,2412
2018-12-10T12:48:53.927Z,2372
2018-12-10T12:49:54.588Z,2244
2018-12-10T12:50:55.248Z,4504
2018-12-10T12:51:55.910Z,2868
2018-12-10T12:52:56.570Z,1840
2018-12-10T12:53:57.229Z,1764
2018-12-10T12:54:57.889Z,2912
2018-12-10T12:55:58.550Z,2052
2018-12-10T12:56:59.209Z,2040
2018-12-10T12:57:59.870Z,2584
2018-12-10T12:59:00.535Z,1788
2018-12-10T13:00:01.247Z,1824
2018-12-10T13:01:02.005Z,1756
2018-12-10T13:02:02.615Z,1728
2018-12-10T13:03:03.276Z,1612
2018-12-10T13:04:03.934Z,1576
2018-12-10T13:05:04.594Z,1568
2018-12-10T13:06:06.998Z,1676
2018-12-10T13:07:06.905Z,1720
2018-12-10T13:08:07.563Z,2824
2018-12-10T13:09:08.222Z,3028
2018-12-10T13:10:08.882Z,3356
2018-12-10T13:11:09.541Z,3544
2018-12-10T13:12:10.201Z,3416
2018-12-10T13:13:10.859Z,3324
2018-12-10T13:14:11.517Z,3324
2018-12-10T13:15:12.177Z,3292
2018-12-10T13:16:12.837Z,3084
2018-12-10T13:17:13.498Z,3188
2018-12-10T13:18:14.202Z,3316
2018-12-10T13:19:14.861Z,3148
2018-12-10T13:20:15.519Z,1808
2018-12-10T13:21:16.178Z,1852
2018-12-10T13:22:16.837Z,1920
2018-12-10T13:23:17.496Z,2364
2018-12-10T13:24:18.160Z,1992
2018-12-10T13:25:18.816Z,2724
2018-12-10T13:26:19.476Z,3888
2018-12-10T13:27:20.136Z,3536
2018-12-10T13:28:20.796Z,3364
2018-12-10T13:29:21.457Z,1880
2018-12-10T13:30:22.130Z,2608
2018-12-10T13:31:22.822Z,3448
2018-12-10T13:32:23.481Z,3388
2018-12-10T13:33:24.187Z,3076
2018-12-10T13:34:24.846Z,1428
2018-12-10T13:35:25.505Z,2828
2018-12-10T13:36:26.164Z,2152
2018-12-10T13:37:26.825Z,2776
2018-12-10T13:38:27.485Z,3256
2018-12-10T13:39:28.145Z,3604
2018-12-10T13:40:28.806Z,3892
2018-12-10T13:41:29.518Z,3548
2018-12-10T13:42:30.172Z,2060
2018-12-10T13:43:30.837Z,1700
2018-12-10T13:44:31.491Z,1588
2018-12-10T13:45:32.149Z,1380
2018-12-10T13:46:32.812Z,1420
2018-12-10T13:47:33.470Z,1736
2018-12-10T13:48:34.132Z,1784
2018-12-10T13:49:34.792Z,1628
2018-12-10T13:50:35.453Z,1436
2018-12-10T13:51:36.113Z,1492
2018-12-10T13:52:36.772Z,1572
2018-12-10T13:53:37.433Z,1568
2018-12-10T13:54:38.091Z,1136
2018-12-10T13:55:38.750Z,828
2018-12-10T13:56:39.410Z,732
2018-12-10T13:57:40.072Z,708
2018-12-10T13:58:40.732Z,816
2018-12-10T13:59:41.436Z,928
2018-12-10T14:00:42.099Z,940
2018-12-10T14:01:42.752Z,944
2018-12-10T14:02:43.412Z,1044
2018-12-10T14:03:44.070Z,928
2018-12-10T14:04:44.728Z,840
2018-12-10T14:05:47.667Z,980
2018-12-10T14:06:47.037Z,1048
2018-12-10T14:07:48.155Z,804
2018-12-10T14:08:48.392Z,788
2018-12-10T14:09:49.049Z,836
2018-12-10T14:10:49.709Z,824
2018-12-10T14:11:50.402Z,836
2018-12-10T14:12:51.072Z,904